createdAt,value
2023-05-18T00:02:18.886Z,25.20
2023-05-18T00:04:45.829Z,25.17
2023-05-18T00:07:13.044Z,25.73
2023-05-18T00:09:40.897Z,25.98
2023-05-18T00:12:09.148Z,25.45
2023-05-18T00:14:36.466Z,24.95
2023-05-18T00:17:03.372Z,25.38
2023-05-18T00:19:30.320Z,25.25
2023-05-18T00:21:57.495Z,24.50
2023-05-18T00:24:24.327Z,24.33
2023-05-18T00:26:51.444Z,25.05
2023-05-18T00:29:18.112Z,25.67
2023-05-18T00:31:46.738Z,23.27
2023-05-18T00:34:16.741Z,24.92
2023-05-18T00:36:43.508Z,24.70
2023-05-18T00:39:10.430Z,24.35
2023-05-18T00:41:37.420Z,24.60
2023-05-18T00:44:04.829Z,23.25
2023-05-18T00:46:32.299Z,24.50
2023-05-18T00:49:01.484Z,24.40
2023-05-18T00:51:29.445Z,25.02
2023-05-18T00:53:57.449Z,23.40
2023-05-18T00:56:24.925Z,23.90
2023-05-18T00:58:55.678Z,23.08
2023-05-18T01:01:28.710Z,23.90
2023-05-18T01:03:57.212Z,23.38
2023-05-18T01:06:25.409Z,23.45
2023-05-18T01:08:55.698Z,23.38
2023-05-18T01:11:35.159Z,25.80
2023-05-18T01:14:05.485Z,22.67
2023-05-18T01:16:43.513Z,24.42
2023-05-18T01:19:19.329Z,25.58
2023-05-18T01:22:26.316Z,25.17
2023-05-18T01:25:03.503Z,23.25
2023-05-18T01:27:37.410Z,24.25
2023-05-18T01:30:05.509Z,23.85
2023-05-18T01:32:40.657Z,24.27
2023-05-18T01:35:07.700Z,25.58
2023-05-18T01:37:34.401Z,23.30
2023-05-18T01:40:01.274Z,25.05
2023-05-18T01:42:30.908Z,24.90
2023-05-18T01:45:02.856Z,24.50
2023-05-18T01:47:31.560Z,23.17
2023-05-18T01:50:01.325Z,21.58
2023-05-18T01:52:37.890Z,22.73
2023-05-18T01:55:09.715Z,23.67
2023-05-18T01:57:39.196Z,23.27
2023-05-18T02:00:10.020Z,23.50
2023-05-18T02:02:43.050Z,23.40
2023-05-18T02:05:12.390Z,23.88
2023-05-18T02:07:39.991Z,24.73
2023-05-18T02:10:08.862Z,23.70
2023-05-18T02:12:35.791Z,24.15
2023-05-18T02:15:05.504Z,24.83
2023-05-18T02:17:33.860Z,25.50
2023-05-18T02:20:00.671Z,24.42
2023-05-18T02:22:27.460Z,25.13
2023-05-18T02:24:54.554Z,26.05
2023-05-18T02:27:21.269Z,25.10
2023-05-18T02:29:48.740Z,25.25
2023-05-18T02:32:15.513Z,26.33
2023-05-18T02:34:42.366Z,24.85
2023-05-18T02:37:10.448Z,25.70
2023-05-18T02:39:37.150Z,26.35
2023-05-18T02:42:04.358Z,26.30
2023-05-18T02:44:31.415Z,26.48
2023-05-18T02:46:58.182Z,25.58
2023-05-18T02:49:24.820Z,26.60
2023-05-18T02:51:51.810Z,26.35
2023-05-18T02:54:18.575Z,25.75
2023-05-18T02:56:46.189Z,25.42
2023-05-18T03:01:57.991Z,25.75
2023-05-18T03:04:25.726Z,24.77
2023-05-18T03:06:57.216Z,25.58
2023-05-18T03:09:24.436Z,25.13
2023-05-18T03:11:53.846Z,26.40
2023-05-18T03:14:20.608Z,25.40
2023-05-18T03:16:47.976Z,25.88
2023-05-18T03:19:16.549Z,26.00
2023-05-18T03:21:43.793Z,25.58
2023-05-18T03:24:14.462Z,25.42
2023-05-18T03:26:44.166Z,26.80
2023-05-18T03:29:13.296Z,26.42
2023-05-18T03:31:40.874Z,26.45
2023-05-18T03:34:08.268Z,27.40
2023-05-18T03:36:35.570Z,25.30
2023-05-18T03:39:02.432Z,26.45
2023-05-18T03:41:29.974Z,26.42
2023-05-18T03:43:56.816Z,24.67
2023-05-18T03:46:23.786Z,27.77
2023-05-18T03:48:54.176Z,29.33
2023-05-18T03:51:29.078Z,27.73
2023-05-18T03:53:55.895Z,27.75
2023-05-18T03:56:23.087Z,28.42
2023-05-18T03:58:51.315Z,28.20
2023-05-18T04:01:18.821Z,26.88
2023-05-18T04:03:45.652Z,27.08
2023-05-18T04:06:12.419Z,27.70
2023-05-18T04:08:40.366Z,26.85
2023-05-18T04:11:07.055Z,27.00
2023-05-18T04:13:33.730Z,26.05
2023-05-18T04:16:00.754Z,27.15
2023-05-18T04:18:30.039Z,26.20
2023-05-18T04:20:56.945Z,26.25
2023-05-18T04:23:24.168Z,26.27
2023-05-18T04:25:51.424Z,25.80
2023-05-18T04:28:19.082Z,25.92
2023-05-18T04:30:46.029Z,24.73
2023-05-18T04:33:13.315Z,24.23
2023-05-18T04:35:39.991Z,26.73
2023-05-18T04:38:06.945Z,25.35
2023-05-18T04:40:34.508Z,25.13
2023-05-18T04:43:01.944Z,24.80
2023-05-18T04:45:31.890Z,25.95
2023-05-18T04:48:01.891Z,26.75
2023-05-18T04:50:28.795Z,25.00
2023-05-18T04:52:57.644Z,24.52
2023-05-18T04:55:27.238Z,23.58
2023-05-18T04:58:06.128Z,23.67
2023-05-18T05:00:33.010Z,21.40
2023-05-18T05:02:59.867Z,20.08
2023-05-18T05:05:27.233Z,19.17
2023-05-18T05:07:54.600Z,20.75
2023-05-18T05:10:21.831Z,20.73
2023-05-18T05:12:50.365Z,19.52
2023-05-18T05:15:18.079Z,20.83
2023-05-18T05:17:47.120Z,23.02
2023-05-18T05:20:13.958Z,24.70
2023-05-18T05:22:40.723Z,26.35
2023-05-18T05:25:10.470Z,26.75
2023-05-18T05:27:38.163Z,26.42
2023-05-18T05:30:05.949Z,26.27
2023-05-18T05:32:36.507Z,25.50
2023-05-18T05:35:04.176Z,24.85
2023-05-18T05:37:31.642Z,25.35
2023-05-18T05:39:59.272Z,25.35
2023-05-18T05:42:26.668Z,24.80
2023-05-18T05:44:56.522Z,24.88
2023-05-18T05:47:24.360Z,26.70
2023-05-18T05:49:51.495Z,26.00
2023-05-18T05:52:18.477Z,25.40
2023-05-18T05:54:45.180Z,25.30
2023-05-18T05:57:11.865Z,25.75
2023-05-18T05:59:38.578Z,25.85
2023-05-18T06:02:05.497Z,25.85
2023-05-18T06:04:32.648Z,25.65
2023-05-18T06:06:59.473Z,26.10
2023-05-18T06:09:26.282Z,26.25
2023-05-18T06:11:54.867Z,26.67
2023-05-18T06:14:21.941Z,24.75
2023-05-18T06:16:48.749Z,25.40
2023-05-18T06:19:15.607Z,27.52
2023-05-18T06:21:42.316Z,26.17
2023-05-18T06:24:09.617Z,27.58
2023-05-18T06:26:43.527Z,29.37
2023-05-18T06:29:21.356Z,29.02
2023-05-18T06:32:20.429Z,29.00
2023-05-18T06:34:53.302Z,29.30
2023-05-18T06:37:21.341Z,29.15
2023-05-18T06:39:49.317Z,29.27
2023-05-18T06:42:16.082Z,29.60
2023-05-18T06:45:00.660Z,29.23
2023-05-18T06:47:48.425Z,28.58
2023-05-18T06:50:15.635Z,29.17
2023-05-18T06:52:42.499Z,27.85
2023-05-18T06:55:09.582Z,28.75
2023-05-18T06:57:36.370Z,28.55
2023-05-18T07:00:07.071Z,28.17
2023-05-18T07:02:34.095Z,28.60
2023-05-18T07:05:01.486Z,29.35
2023-05-18T07:07:28.277Z,28.95
2023-05-18T07:09:54.912Z,28.17
2023-05-18T07:12:22.468Z,27.77
2023-05-18T07:14:49.203Z,26.00
2023-05-18T07:17:15.886Z,27.98
2023-05-18T07:19:42.542Z,28.10
2023-05-18T07:22:09.822Z,28.55
2023-05-18T07:24:36.504Z,27.63
2023-05-18T07:27:03.310Z,26.92
2023-05-18T07:29:30.547Z,29.67
2023-05-18T07:31:57.298Z,28.67
2023-05-18T07:34:26.644Z,29.52
2023-05-18T07:36:53.925Z,29.65
2023-05-18T07:39:21.737Z,30.80
2023-05-18T07:41:49.531Z,31.85
2023-05-18T07:44:16.203Z,32.35
2023-05-18T07:46:43.475Z,31.45
2023-05-18T07:49:10.218Z,29.35
2023-05-18T07:51:36.912Z,29.70
2023-05-18T07:54:05.040Z,31.67
2023-05-18T07:56:31.675Z,32.67
2023-05-18T07:58:58.332Z,31.60
2023-05-18T08:01:27.550Z,33.75
2023-05-18T08:03:54.646Z,30.55
2023-05-18T08:06:21.449Z,31.60
2023-05-18T08:08:48.255Z,30.98
2023-05-18T08:11:15.036Z,33.42
2023-05-18T08:13:41.914Z,30.88
2023-05-18T08:16:12.261Z,29.50
2023-05-18T08:18:39.897Z,31.98
2023-05-18T08:21:10.201Z,31.67
2023-05-18T08:23:37.305Z,31.05
2023-05-18T08:26:04.105Z,33.15
2023-05-18T08:28:31.325Z,32.22
2023-05-18T08:30:58.231Z,31.58
2023-05-18T08:33:25.664Z,30.50
2023-05-18T08:35:52.598Z,32.50
2023-05-18T08:38:19.390Z,35.88
2023-05-18T08:41:25.904Z,34.75
2023-05-18T08:44:22.860Z,33.97
2023-05-18T08:46:51.272Z,33.30
2023-05-18T08:49:20.300Z,34.38
2023-05-18T08:51:49.090Z,32.47
2023-05-18T08:54:22.762Z,31.70
2023-05-18T08:56:50.679Z,32.63
2023-05-18T08:59:23.603Z,34.03
2023-05-18T09:01:51.857Z,34.75
2023-05-18T09:04:19.985Z,35.35
2023-05-18T09:06:48.377Z,34.63
2023-05-18T09:09:16.107Z,35.88
2023-05-18T09:11:43.087Z,37.22
2023-05-18T09:14:10.407Z,36.85
2023-05-18T09:16:37.389Z,36.55
2023-05-18T09:19:04.806Z,32.80
2023-05-18T09:21:32.742Z,34.88
2023-05-18T09:24:01.031Z,36.03
2023-05-18T09:26:27.773Z,35.28
2023-05-18T09:28:54.839Z,33.67
2023-05-18T09:31:24.620Z,34.08
2023-05-18T09:33:52.271Z,42.20
2023-05-18T09:36:25.588Z,41.67
2023-05-18T09:38:53.208Z,38.92
2023-05-18T09:41:20.018Z,40.17
2023-05-18T09:43:51.232Z,38.60
2023-05-18T09:46:18.837Z,31.48
2023-05-18T09:48:55.392Z,33.63
2023-05-18T09:51:25.019Z,33.25
2023-05-18T09:53:56.386Z,33.65
2023-05-18T09:56:27.249Z,33.05
2023-05-18T09:58:54.172Z,32.55
2023-05-18T10:01:21.077Z,40.47
2023-05-18T10:03:49.575Z,43.28
2023-05-18T10:06:20.951Z,39.78
2023-05-18T10:08:47.797Z,41.80
2023-05-18T10:11:19.500Z,35.10
2023-05-18T10:13:46.842Z,38.85
2023-05-18T10:16:15.654Z,45.47
2023-05-18T10:18:42.948Z,44.63
2023-05-18T10:21:12.418Z,43.03
2023-05-18T10:23:41.573Z,32.28
2023-05-18T10:26:09.711Z,34.72
2023-05-18T10:28:42.181Z,41.40
2023-05-18T10:31:09.719Z,43.80
2023-05-18T10:33:38.002Z,45.60
2023-05-18T10:36:06.199Z,45.03
2023-05-18T10:38:36.222Z,45.83
2023-05-18T10:41:05.456Z,43.50
2023-05-18T10:43:35.068Z,46.33
2023-05-18T10:46:02.146Z,44.80
2023-05-18T10:48:30.037Z,46.00
2023-05-18T10:50:57.976Z,43.53
2023-05-18T10:53:29.822Z,37.75
2023-05-18T10:55:56.584Z,45.42
2023-05-18T10:58:26.357Z,45.72
2023-05-18T11:00:57.850Z,44.25
2023-05-18T11:03:27.127Z,45.70
2023-05-18T11:06:11.384Z,46.47
2023-05-18T11:08:48.876Z,54.33
2023-05-18T11:11:18.659Z,51.47
2023-05-18T11:13:49.348Z,46.08
2023-05-18T11:16:17.171Z,46.15
2023-05-18T11:18:52.478Z,44.92
2023-05-18T11:21:19.865Z,52.10
2023-05-18T11:24:14.912Z,45.50
2023-05-18T11:26:42.935Z,44.20
2023-05-18T11:29:23.433Z,34.53
2023-05-18T11:31:55.594Z,37.13
2023-05-18T11:34:44.528Z,41.70
2023-05-18T11:37:12.869Z,46.15
2023-05-18T11:39:48.026Z,47.35
2023-05-18T11:42:19.215Z,34.13
2023-05-18T11:44:57.800Z,40.90
2023-05-18T11:47:31.307Z,33.35
2023-05-18T11:49:58.109Z,47.88
2023-05-18T11:52:25.726Z,48.70
2023-05-18T11:54:57.294Z,42.75
2023-05-18T11:57:40.412Z,32.55
2023-05-18T12:00:10.262Z,33.67
2023-05-18T12:02:44.504Z,33.05
2023-05-18T12:05:11.729Z,37.63
2023-05-18T12:07:39.425Z,48.45
2023-05-18T12:10:17.506Z,45.40
2023-05-18T12:12:49.053Z,32.47
2023-05-18T12:15:17.165Z,50.15
2023-05-18T12:17:46.610Z,35.97
2023-05-18T12:20:18.177Z,36.53
2023-05-18T12:22:55.403Z,34.90
2023-05-18T12:25:23.846Z,36.97
2023-05-18T12:27:52.663Z,41.90
2023-05-18T12:30:21.415Z,45.15
2023-05-18T12:32:50.998Z,45.53
2023-05-18T12:35:21.701Z,46.60
2023-05-18T12:37:48.325Z,42.90
2023-05-18T12:40:16.735Z,36.22
2023-05-18T12:43:00.700Z,35.60
2023-05-18T12:45:32.428Z,40.10
2023-05-18T12:48:06.247Z,35.60
2023-05-18T12:50:33.149Z,34.78
2023-05-18T12:53:01.806Z,40.80
2023-05-18T12:55:30.806Z,38.40
2023-05-18T12:58:12.746Z,43.33
2023-05-18T13:00:39.381Z,42.45
2023-05-18T13:03:16.252Z,40.70
2023-05-18T13:05:47.680Z,40.60
2023-05-18T13:08:17.749Z,42.88
2023-05-18T13:10:45.120Z,44.55
2023-05-18T13:13:15.579Z,37.30
2023-05-18T13:15:43.865Z,34.47
2023-05-18T13:18:11.855Z,34.78
2023-05-18T13:20:51.348Z,39.78
2023-05-18T13:23:21.015Z,43.25
2023-05-18T13:25:48.385Z,40.67
2023-05-18T13:28:16.839Z,38.60
2023-05-18T13:30:45.337Z,33.53
2023-05-18T13:33:12.299Z,37.25
2023-05-18T13:35:44.349Z,42.03
2023-05-18T13:38:13.191Z,35.47
2023-05-18T13:40:41.491Z,34.35
2023-05-18T13:43:10.272Z,38.78
2023-05-18T13:45:39.188Z,40.83
2023-05-18T13:48:09.608Z,42.08
2023-05-18T13:50:37.079Z,32.97
2023-05-18T13:53:04.176Z,36.17
2023-05-18T13:55:31.216Z,32.85
2023-05-18T13:57:58.321Z,32.90
2023-05-18T14:00:25.330Z,35.83
2023-05-18T14:02:53.164Z,35.75
2023-05-18T14:05:20.569Z,37.63
2023-05-18T14:07:47.285Z,37.95
2023-05-18T14:10:14.042Z,38.13
2023-05-18T14:12:42.569Z,40.00
2023-05-18T14:15:10.940Z,37.03
2023-05-18T14:17:37.773Z,37.00
2023-05-18T14:20:05.518Z,33.50
2023-05-18T14:22:32.968Z,37.20
2023-05-18T14:25:00.696Z,37.90
2023-05-18T14:27:28.132Z,36.75
2023-05-18T14:29:54.973Z,35.92
2023-05-18T14:32:21.875Z,34.65
2023-05-18T14:34:51.734Z,37.10
2023-05-18T14:37:19.007Z,38.65
2023-05-18T14:39:46.222Z,36.20
2023-05-18T14:42:13.313Z,37.55
2023-05-18T14:44:43.123Z,37.83
2023-05-18T14:47:10.626Z,37.50
2023-05-18T14:49:37.906Z,35.42
2023-05-18T14:52:05.091Z,33.97
2023-05-18T14:54:31.819Z,36.03
2023-05-18T14:56:59.557Z,38.60
2023-05-18T14:59:26.249Z,34.80
2023-05-18T15:01:52.965Z,38.25
2023-05-18T15:04:21.721Z,36.00
2023-05-18T15:06:49.600Z,35.35
2023-05-18T15:09:16.598Z,35.45
2023-05-18T15:11:43.621Z,34.97
2023-05-18T15:14:10.544Z,37.63
2023-05-18T15:16:37.486Z,37.72
2023-05-18T15:19:05.132Z,38.08
2023-05-18T15:21:31.936Z,38.83
2023-05-18T15:23:59.068Z,37.30
2023-05-18T15:26:26.081Z,37.72
2023-05-18T15:28:52.866Z,35.90
2023-05-18T15:31:19.578Z,34.13
2023-05-18T15:33:46.859Z,38.08
2023-05-18T15:36:13.642Z,35.25
2023-05-18T15:38:41.080Z,32.13
2023-05-18T15:41:07.848Z,36.45
2023-05-18T15:43:36.414Z,38.70
2023-05-18T15:46:03.266Z,38.25
2023-05-18T15:48:30.441Z,37.05
2023-05-18T15:50:57.387Z,37.05
2023-05-18T15:53:24.166Z,35.08
2023-05-18T15:55:55.870Z,34.88
2023-05-18T15:58:25.448Z,34.53
2023-05-18T16:00:52.205Z,37.17
2023-05-18T16:03:19.056Z,34.67
2023-05-18T16:05:45.873Z,35.67
2023-05-18T16:08:12.535Z,36.75
2023-05-18T16:10:39.329Z,34.38
2023-05-18T16:13:06.315Z,36.63
2023-05-18T16:15:34.207Z,34.70
2023-05-18T16:18:01.547Z,33.47
2023-05-18T16:20:28.734Z,32.97
2023-05-18T16:22:55.630Z,34.70
2023-05-18T16:25:23.363Z,33.50
2023-05-18T16:27:50.185Z,34.63
2023-05-18T16:30:16.947Z,34.17
2023-05-18T16:32:44.359Z,34.20
2023-05-18T16:35:11.429Z,34.60
2023-05-18T16:37:38.924Z,34.35
2023-05-18T16:40:06.701Z,33.33
2023-05-18T16:42:33.771Z,33.80
2023-05-18T16:45:00.773Z,34.58
2023-05-18T16:47:27.701Z,34.28
2023-05-18T16:49:54.469Z,34.40
2023-05-18T16:52:21.399Z,32.97
2023-05-18T16:54:48.353Z,35.33
2023-05-18T16:57:15.530Z,35.13
2023-05-18T16:59:42.603Z,35.08
2023-05-18T17:02:18.511Z,35.28
2023-05-18T17:04:45.810Z,36.20
2023-05-18T17:07:12.832Z,36.42
2023-05-18T17:09:41.343Z,35.45
2023-05-18T17:12:09.421Z,34.33
2023-05-18T17:14:36.410Z,34.45
2023-05-18T17:17:04.068Z,34.08
2023-05-18T17:19:31.023Z,33.97
2023-05-18T17:21:57.708Z,34.33
2023-05-18T17:24:24.359Z,34.83
2023-05-18T17:26:51.147Z,33.55
2023-05-18T17:29:19.602Z,33.42
2023-05-18T17:31:47.869Z,32.85
2023-05-18T17:34:14.576Z,33.83
2023-05-18T17:36:42.462Z,33.83
2023-05-18T17:39:09.255Z,32.85
2023-05-18T17:41:36.292Z,33.28
2023-05-18T17:44:03.307Z,35.15
2023-05-18T17:46:30.599Z,35.13
2023-05-18T17:48:57.368Z,35.80
2023-05-18T17:51:24.559Z,35.83
2023-05-18T17:53:51.479Z,35.60
2023-05-18T17:56:18.332Z,34.33
2023-05-18T17:58:45.068Z,33.80
2023-05-18T18:01:12.013Z,34.85
2023-05-18T18:03:39.051Z,41.03
2023-05-18T18:06:06.491Z,42.38
2023-05-18T18:08:33.674Z,41.22
2023-05-18T18:11:00.495Z,40.25
2023-05-18T18:13:27.206Z,41.10
2023-05-18T18:15:53.964Z,42.17
2023-05-18T18:18:21.223Z,42.63
2023-05-18T18:20:47.906Z,42.95
2023-05-18T18:23:15.551Z,38.53
2023-05-18T18:25:43.365Z,35.50
2023-05-18T18:28:14.517Z,31.20
2023-05-18T18:30:44.059Z,30.60
2023-05-18T18:33:11.351Z,31.40
2023-05-18T18:35:38.552Z,32.15
2023-05-18T18:38:05.438Z,32.75
2023-05-18T18:40:33.799Z,30.38
2023-05-18T18:43:00.775Z,32.30
2023-05-18T18:45:30.739Z,31.80
2023-05-18T18:47:58.070Z,31.27
2023-05-18T18:50:25.551Z,30.80
2023-05-18T18:52:52.292Z,31.38
2023-05-18T18:55:19.711Z,31.50
2023-05-18T18:57:46.609Z,30.85
2023-05-18T19:00:17.079Z,31.17
2023-05-18T19:02:43.839Z,31.65
2023-05-18T19:05:10.755Z,32.17
2023-05-18T19:07:37.662Z,23.42
2023-05-18T19:10:05.024Z,23.35
2023-05-18T19:12:32.637Z,23.13
2023-05-18T19:14:59.449Z,23.45
2023-05-18T19:17:26.493Z,31.88
2023-05-18T19:19:53.358Z,23.77
2023-05-18T19:22:20.059Z,24.27
2023-05-18T19:24:46.760Z,24.27
2023-05-18T19:27:13.464Z,24.70
2023-05-18T19:29:40.298Z,24.35
2023-05-18T19:32:07.360Z,24.02
2023-05-18T19:34:34.129Z,24.40
2023-05-18T19:37:00.826Z,23.42
2023-05-18T19:39:27.646Z,24.67
2023-05-18T19:41:54.517Z,24.70
2023-05-18T19:44:21.645Z,24.40
2023-05-18T19:46:48.756Z,23.90
2023-05-18T19:49:15.602Z,30.10
2023-05-18T19:51:42.277Z,23.50
2023-05-18T19:54:08.975Z,23.92
2023-05-18T19:56:38.463Z,23.00
2023-05-18T19:59:05.148Z,24.10
2023-05-18T20:01:32.188Z,23.55
2023-05-18T20:03:59.819Z,23.00
2023-05-18T20:06:29.166Z,23.15
2023-05-18T20:08:56.112Z,22.50
2023-05-18T20:11:22.853Z,23.00
2023-05-18T20:13:49.632Z,21.70
2023-05-18T20:16:16.427Z,22.35
2023-05-18T20:18:45.652Z,22.70
2023-05-18T20:21:12.370Z,22.77
2023-05-18T20:23:39.239Z,21.58
2023-05-18T20:26:07.011Z,21.48
2023-05-18T20:28:33.793Z,21.10
2023-05-18T20:31:00.604Z,22.13
2023-05-18T20:33:29.985Z,22.00
2023-05-18T20:35:56.663Z,21.60
2023-05-18T20:38:25.710Z,22.17
2023-05-18T20:40:53.568Z,22.05
2023-05-18T20:43:21.152Z,21.42
2023-05-18T20:45:49.572Z,21.67
2023-05-18T20:48:24.311Z,22.27
2023-05-18T20:50:51.891Z,21.92
2023-05-18T20:53:19.501Z,21.67
2023-05-18T20:55:47.440Z,21.98
2023-05-18T20:58:14.924Z,22.05
2023-05-18T21:00:42.111Z,21.65
2023-05-18T21:03:09.159Z,21.80
2023-05-18T21:05:36.247Z,21.80
2023-05-18T21:08:03.410Z,21.92
2023-05-18T21:10:31.790Z,21.80
2023-05-18T21:12:58.825Z,21.83
2023-05-18T21:15:25.724Z,21.65
2023-05-18T21:17:52.511Z,22.25
2023-05-18T21:20:19.231Z,21.92
2023-05-18T21:22:46.450Z,21.92
2023-05-18T21:25:13.224Z,21.55
2023-05-18T21:27:39.942Z,23.08
2023-05-18T21:30:07.303Z,22.55
2023-05-18T21:32:34.186Z,22.25
2023-05-18T21:35:01.411Z,22.95
2023-05-18T21:37:29.284Z,22.42
2023-05-18T21:39:55.956Z,22.45
2023-05-18T21:42:22.646Z,22.05
2023-05-18T21:44:49.303Z,22.45
2023-05-18T21:47:15.974Z,22.92
2023-05-18T21:49:44.064Z,22.55
2023-05-18T21:52:10.774Z,22.17
2023-05-18T21:54:38.398Z,21.70
2023-05-18T21:57:05.728Z,22.85
2023-05-18T21:59:32.432Z,22.17
2023-05-18T22:01:59.193Z,22.30
2023-05-18T22:04:26.106Z,21.95
2023-05-18T22:06:53.508Z,22.02
2023-05-18T22:09:20.346Z,21.80
2023-05-18T22:11:46.992Z,22.10
2023-05-18T22:14:14.984Z,21.88
2023-05-18T22:16:43.778Z,22.25
2023-05-18T22:19:10.808Z,21.75
2023-05-18T22:21:37.594Z,21.83
2023-05-18T22:24:04.576Z,21.60
2023-05-18T22:26:31.530Z,21.55
2023-05-18T22:28:58.466Z,21.77
2023-05-18T22:31:25.502Z,22.05
2023-05-18T22:33:53.946Z,21.63
2023-05-18T22:36:21.690Z,22.60
2023-05-18T22:38:49.607Z,22.13
2023-05-18T22:41:17.088Z,22.02
2023-05-18T22:43:43.734Z,21.40
2023-05-18T22:46:11.157Z,22.15
2023-05-18T22:48:37.948Z,22.05
2023-05-18T22:51:06.222Z,21.77
2023-05-18T22:53:33.445Z,22.17
2023-05-18T22:56:00.299Z,21.77
2023-05-18T22:58:27.126Z,22.00
2023-05-18T23:00:53.868Z,22.40
2023-05-18T23:03:20.657Z,22.23
2023-05-18T23:05:48.258Z,21.88
2023-05-18T23:08:15.618Z,22.20
2023-05-18T23:10:44.573Z,22.30
2023-05-18T23:13:12.326Z,21.52
2023-05-18T23:15:41.283Z,22.40
2023-05-18T23:18:09.014Z,23.05
2023-05-18T23:20:36.002Z,22.42
2023-05-18T23:23:02.700Z,22.48
2023-05-18T23:25:29.473Z,22.30
2023-05-18T23:27:56.188Z,22.65
2023-05-18T23:30:22.832Z,22.15
2023-05-18T23:32:50.065Z,22.15
2023-05-18T23:35:18.334Z,22.40
2023-05-18T23:37:48.928Z,22.00
2023-05-18T23:40:18.900Z,21.88
2023-05-18T23:42:46.241Z,21.88
2023-05-18T23:45:13.652Z,21.60
2023-05-18T23:47:40.802Z,22.27
2023-05-18T23:50:08.085Z,22.20
2023-05-18T23:52:36.088Z,23.48
2023-05-18T23:55:03.987Z,23.75
2023-05-18T23:57:31.480Z,22.45
2023-05-18T23:59:58.579Z,22.83
